Cockenzie, United Kingdom
Current Conditions -  °F | °C
As of 4:20 PM on Wednesday 28 Jan 2015 (Local Time) from EGPH Reporting Station
Few Clouds Few Clouds  
Wind Chill: 25°   Ceiling: Unl
Heat Index: 36°   Visibility: 6mi
Dew Point: 32°   Wind: 17mph
Humidity: 87%   Direction: 250°WSW
Pressure: 29.18"   Gusts: NA
Location:  55.97°N, 2.97°W
Report Text: EGPH 281620Z 25015KT 9999 FEW019CB 02/M00 Q0988
Loading
Personal Weather Stations






























Interactive Weather Map New forecast layout! Learn more

10-Day Weather Forecast

Advertisements
Track Severe Weather on mobile